Terminal Aerodrome Forecast
Issued by NWS

Home | Current Version | Previous Version | Text Only | Print | Product List | Glossary On
Versions: 1 2 3 4 5 6 7 8 9 10 11 12 13 14 15 16 17 18 19 20 21 22 23 24 25 26 27 28 29 30 31 32 33
000
FTUS46 KMTR 280400 AAB
TAFSFO
TAF AMD
KSFO 280436Z 2805/2906 28017G22KT P6SM SCT007
      TEMPO 2805/2807 BKN007
     FM280700 28010KT P6SM SCT010
      TEMPO 2813/2817 BKN010
     FM281900 29017G22KT P6SM FEW015 SCT250
     FM282300 29020G34KT P6SM FEW012 SCT250
     FM290400 29017G25KT P6SM FEW012 BKN250=

USA.gov is the U.S. government's official web portal to all federal, state and local government web resources and services.